Time;durP1;ratioP1;P1;durP2;ratioP2;P2;SDS_P1;SDS_P2;PMS_P1;PMS_P2;Temp;Humidity;BMP_temperature;BMP_pressure;BME280_temperature;BME280_humidity;BME280_pressure;Samples;Min_cycle;Max_cycle;Signal;HPM_P1;HPM_P2
2022/04/03 00:00:21;;;;;;;4.47;1.80;;;1.50;99.90;;;;;;5056214;28;20486;-50
2022/04/03 00:02:50;;;;;;;4.47;1.20;;;1.50;99.90;;;;;;5056335;28;20754;-49
2022/04/03 00:05:17;;;;;;;2.93;1.40;;;1.40;99.90;;;;;;5056194;28;20490;-48
2022/04/03 00:07:43;;;;;;;3.07;1.30;;;1.50;99.90;;;;;;5056089;28;20936;-53
2022/04/03 00:10:10;;;;;;;2.90;1.20;;;1.50;99.90;;;;;;5056137;28;20918;-53
2022/04/03 00:12:38;;;;;;;3.50;1.40;;;1.50;99.90;;;;;;5055817;28;20451;-49
2022/04/03 00:15:05;;;;;;;2.20;1.40;;;1.50;99.90;;;;;;5055971;28;20459;-53
2022/04/03 00:17:32;;;;;;;3.40;1.17;;;1.50;99.90;;;;;;5056324;28;20490;-52
2022/04/03 00:20:00;;;;;;;2.57;1.43;;;1.50;99.90;;;;;;5053953;28;20545;-53
2022/04/03 00:22:28;;;;;;;4.57;1.33;;;1.30;99.90;;;;;;5056200;28;20570;-52
2022/04/03 00:24:55;;;;;;;7.20;1.70;;;1.30;99.90;;;;;;5055785;28;20494;-51
2022/04/03 00:27:22;;;;;;;5.57;1.50;;;1.30;99.90;;;;;;5056509;28;20443;-50
2022/04/03 00:29:49;;;;;;;2.80;1.37;;;1.30;99.90;;;;;;5056583;28;20475;-49
2022/04/03 00:32:16;;;;;;;2.67;1.40;;;1.40;99.90;;;;;;5056224;28;20580;-48
2022/04/03 00:34:43;;;;;;;3.20;1.73;;;1.40;99.90;;;;;;5056110;28;20550;-51
2022/04/03 00:37:11;;;;;;;5.23;1.80;;;1.40;99.90;;;;;;5055978;28;20538;-49
2022/04/03 00:39:38;;;;;;;4.70;2.20;;;1.40;99.90;;;;;;5056078;28;20490;-50
2022/04/03 00:42:07;;;;;;;3.57;1.20;;;1.40;99.90;;;;;;5055893;28;20489;-46
2022/04/03 00:44:35;;;;;;;2.50;1.10;;;1.40;99.90;;;;;;5056220;28;20521;-47
2022/04/03 00:47:02;;;;;;;3.53;1.40;;;1.40;99.90;;;;;;5056121;28;20443;-50
2022/04/03 00:49:29;;;;;;;3.00;2.10;;;1.40;99.90;;;;;;5055922;28;20834;-49
2022/04/03 00:51:56;;;;;;;3.40;1.10;;;1.30;99.90;;;;;;5055913;28;20930;-52
2022/04/03 00:54:24;;;;;;;3.73;1.50;;;1.30;99.90;;;;;;5055593;28;20538;-51
2022/04/03 00:56:52;;;;;;;2.53;1.77;;;1.30;99.90;;;;;;5055619;28;20542;-50
2022/04/03 00:59:19;;;;;;;4.20;1.17;;;1.40;99.90;;;;;;5055577;28;20497;-49
2022/04/03 01:01:46;;;;;;;8.63;1.80;;;1.40;99.90;;;;;;5055948;28;20530;-47
2022/04/03 01:04:13;;;;;;;6.97;2.90;;;1.40;99.90;;;;;;5059666;28;20461;-50
2022/04/03 01:06:40;;;;;;;4.80;1.90;;;1.40;99.90;;;;;;5059915;28;20537;-52
2022/04/03 01:09:07;;;;;;;3.50;1.40;;;1.40;99.90;;;;;;5059972;28;20549;-53
2022/04/03 01:11:36;;;;;;;5.80;1.97;;;1.40;99.90;;;;;;5059769;28;20489;-50
2022/04/03 01:14:05;;;;;;;4.40;1.60;;;1.40;99.90;;;;;;5059782;28;20894;-48
2022/04/03 01:16:32;;;;;;;3.80;1.93;;;1.50;99.90;;;;;;5060111;28;20451;-52
2022/04/03 01:18:59;;;;;;;3.23;1.63;;;1.50;99.90;;;;;;5059516;28;20546;-52
2022/04/03 01:21:26;;;;;;;3.90;1.20;;;1.50;99.90;;;;;;5059142;28;20573;-50
2022/04/03 01:23:55;;;;;;;3.90;1.90;;;1.40;99.90;;;;;;5059516;28;20541;-51
2022/04/03 01:26:23;;;;;;;3.87;1.60;;;1.40;99.90;;;;;;5059729;28;20447;-49
2022/04/03 01:28:51;;;;;;;6.57;1.77;;;1.40;99.90;;;;;;5059035;28;20513;-53
2022/04/03 01:31:18;;;;;;;2.73;1.37;;;1.50;99.90;;;;;;5059098;28;20541;-51
2022/04/03 01:33:45;;;;;;;7.60;2.20;;;1.50;99.90;;;;;;5058913;28;20462;-53
2022/04/03 01:36:12;;;;;;;4.40;1.77;;;1.50;99.90;;;;;;5058147;28;20820;-52
2022/04/03 01:38:39;;;;;;;4.97;2.23;;;1.40;99.90;;;;;;5057925;28;20534;-51
2022/04/03 01:41:06;;;;;;;2.57;1.90;;;1.50;99.90;;;;;;5057050;28;20471;-52
2022/04/03 01:43:34;;;;;;;8.70;1.40;;;1.50;99.90;;;;;;5057944;28;20478;-53
2022/04/03 01:46:01;;;;;;;3.70;1.73;;;1.50;99.90;;;;;;5058079;28;20529;-49
2022/04/03 01:48:28;;;;;;;5.10;3.20;;;1.40;99.90;;;;;;5058704;28;20807;-50
2022/04/03 01:50:55;;;;;;;3.60;1.20;;;1.50;99.90;;;;;;5058989;28;20496;-53
2022/04/03 01:53:22;;;;;;;5.17;1.57;;;1.50;99.90;;;;;;5059069;28;20447;-49
2022/04/03 01:55:59;;;;;;;2.43;1.60;;;1.50;99.90;;;;;;5059358;28;20723;-52
2022/04/03 01:58:26;;;;;;;2.70;1.20;;;1.40;99.90;;;;;;5059460;28;20502;-54
2022/04/03 02:00:54;;;;;;;5.57;1.73;;;1.40;99.90;;;;;;5058764;28;20542;-49
2022/04/03 02:03:21;;;;;;;3.23;1.50;;;1.40;99.90;;;;;;5058493;28;20453;-51
2022/04/03 02:05:48;;;;;;;4.07;1.53;;;1.50;99.90;;;;;;5057287;28;20497;-52
2022/04/03 02:08:15;;;;;;;4.93;1.70;;;1.50;99.90;;;;;;5057648;28;20443;-49
2022/04/03 02:10:43;;;;;;;4.37;1.40;;;1.50;99.90;;;;;;5057833;28;20542;-53
2022/04/03 02:13:09;;;;;;;2.67;1.40;;;1.50;99.90;;;;;;5056792;28;20535;-53
2022/04/03 02:15:36;;;;;;;4.27;1.60;;;1.50;99.90;;;;;;5057469;28;20489;-50
2022/04/03 02:18:05;;;;;;;3.83;1.87;;;1.50;99.90;;;;;;5058013;28;20524;-52
2022/04/03 02:20:32;;;;;;;4.03;1.70;;;1.50;99.90;;;;;;5058479;28;20451;-50
2022/04/03 02:22:59;;;;;;;3.70;1.30;;;1.40;99.90;;;;;;5058057;28;20870;-52
2022/04/03 02:25:26;;;;;;;2.80;1.23;;;1.30;99.90;;;;;;5058414;28;20893;-53
2022/04/03 02:27:54;;;;;;;3.57;1.40;;;1.30;99.90;;;;;;5058969;28;20462;-53
2022/04/03 02:30:21;;;;;;;3.83;1.80;;;1.40;99.90;;;;;;5058207;28;20455;-49
2022/04/03 02:32:48;;;;;;;9.13;2.33;;;1.30;99.90;;;;;;5058100;28;20564;-52
2022/04/03 02:35:17;;;;;;;7.00;2.17;;;1.30;99.90;;;;;;5058332;28;20549;-49
2022/04/03 02:37:44;;;;;;;5.93;2.07;;;1.40;99.90;;;;;;5058453;28;20475;-54
2022/04/03 02:40:13;;;;;;;9.50;1.97;;;1.40;99.90;;;;;;5058198;28;20498;-54
2022/04/03 02:42:40;;;;;;;4.07;1.67;;;1.50;99.90;;;;;;5057703;28;20450;-53
2022/04/03 02:45:10;;;;;;;2.47;1.13;;;1.40;99.90;;;;;;5056985;28;20459;-51
2022/04/03 02:47:38;;;;;;;5.27;1.73;;;1.50;99.90;;;;;;5056330;28;20477;-54
2022/04/03 02:50:07;;;;;;;2.20;1.63;;;1.50;99.90;;;;;;5056916;28;20459;-48
2022/04/03 02:52:35;;;;;;;3.80;1.30;;;1.50;99.90;;;;;;5056566;28;20479;-54
2022/04/03 02:55:04;;;;;;;2.47;1.20;;;1.50;99.90;;;;;;5056658;28;20455;-53
2022/04/03 02:57:31;;;;;;;6.60;1.67;;;1.50;99.90;;;;;;5056764;28;20542;-53
2022/04/03 02:59:58;;;;;;;2.37;1.40;;;1.50;99.90;;;;;;5056865;28;20546;-54
2022/04/03 03:02:24;;;;;;;3.70;1.97;;;1.50;99.90;;;;;;5057523;28;20474;-53
2022/04/03 03:04:51;;;;;;;2.83;1.20;;;1.50;99.90;;;;;;5057763;28;20692;-48
2022/04/03 03:07:18;;;;;;;2.40;1.40;;;1.50;99.90;;;;;;5055781;28;20526;-53
2022/04/03 03:09:46;;;;;;;2.40;1.10;;;1.50;99.90;;;;;;5056172;28;20462;-50
2022/04/03 03:12:14;;;;;;;6.00;1.37;;;1.60;99.90;;;;;;5056288;28;20537;-48
2022/04/03 03:14:41;;;;;;;2.30;1.07;;;1.60;99.90;;;;;;5055979;28;20455;-52
2022/04/03 03:17:08;;;;;;;4.13;1.10;;;1.60;99.90;;;;;;5055897;28;20439;-54
2022/04/03 03:19:34;;;;;;;2.60;1.30;;;1.60;99.90;;;;;;5055112;28;20972;-52
2022/04/03 03:22:01;;;;;;;2.80;1.03;;;1.60;99.90;;;;;;5056643;28;20509;-52
2022/04/03 03:24:28;;;;;;;3.23;1.50;;;1.60;99.90;;;;;;5056861;28;20546;-55
2022/04/03 03:26:56;;;;;;;3.27;1.50;;;1.60;99.90;;;;;;5057388;28;20447;-53
2022/04/03 03:29:23;;;;;;;4.50;1.63;;;1.60;99.90;;;;;;5057178;28;20448;-54
2022/04/03 03:31:50;;;;;;;3.90;1.77;;;1.60;99.90;;;;;;5057629;28;20579;-54
2022/04/03 03:34:17;;;;;;;3.20;1.57;;;1.60;99.90;;;;;;5056986;28;20562;-52
2022/04/03 03:36:44;;;;;;;2.00;0.93;;;1.60;99.90;;;;;;5057124;28;20922;-51
2022/04/03 03:39:12;;;;;;;2.73;1.20;;;1.50;99.90;;;;;;5057522;28;20553;-53
2022/04/03 03:41:39;;;;;;;4.27;2.00;;;1.40;99.90;;;;;;5057148;28;20581;-53
2022/04/03 03:44:10;;;;;;;3.97;1.13;;;1.30;99.90;;;;;;5056593;28;20489;-55
2022/04/03 03:46:37;;;;;;;2.43;1.10;;;1.30;99.90;;;;;;5055965;28;20450;-48
2022/04/03 03:49:06;;;;;;;2.73;1.20;;;1.30;99.90;;;;;;5055382;28;20462;-54
2022/04/03 03:51:34;;;;;;;2.87;1.10;;;1.30;99.90;;;;;;5055427;28;20451;-54
2022/04/03 03:54:01;;;;;;;2.13;1.20;;;1.30;99.90;;;;;;5055791;28;20459;-53
2022/04/03 03:56:28;;;;;;;4.63;1.40;;;1.40;99.90;;;;;;5055619;28;20490;-54
2022/04/03 03:58:55;;;;;;;2.17;1.07;;;1.40;99.90;;;;;;5055887;28;20546;-50
2022/04/03 04:01:24;;;;;;;3.70;1.47;;;1.40;99.90;;;;;;5055850;28;20983;-51
2022/04/03 04:03:51;;;;;;;3.30;1.40;;;1.40;99.90;;;;;;5056284;28;20491;-54
2022/04/03 04:06:17;;;;;;;1.97;0.90;;;1.50;99.90;;;;;;5055812;28;20823;-50
2022/04/03 04:08:44;;;;;;;2.90;1.20;;;1.50;99.90;;;;;;5056589;28;20455;-54
2022/04/03 04:11:11;;;;;;;4.83;1.93;;;1.40;99.90;;;;;;5056671;28;20541;-49
2022/04/03 04:13:38;;;;;;;3.83;1.10;;;1.30;99.90;;;;;;5056488;28;20483;-52
2022/04/03 04:16:06;;;;;;;3.43;1.20;;;1.30;99.90;;;;;;5056219;28;20534;-54
2022/04/03 04:18:34;;;;;;;3.80;1.30;;;1.20;99.90;;;;;;5054773;28;20752;-53
2022/04/03 04:21:02;;;;;;;8.47;1.73;;;1.30;99.90;;;;;;5055070;28;20526;-52
2022/04/03 04:23:29;;;;;;;6.90;1.77;;;1.40;99.90;;;;;;5055835;28;20447;-53
2022/04/03 04:25:55;;;;;;;3.67;1.80;;;1.40;99.90;;;;;;5055479;28;20618;-51
2022/04/03 04:28:22;;;;;;;2.93;1.13;;;1.40;99.90;;;;;;5055090;28;20537;-52
2022/04/03 04:30:49;;;;;;;3.33;1.40;;;1.20;99.90;;;;;;5054954;28;20486;-53
2022/04/03 04:33:16;;;;;;;5.70;1.63;;;1.20;99.90;;;;;;5055659;28;20735;-52
2022/04/03 04:35:44;;;;;;;4.13;1.50;;;1.30;99.90;;;;;;5056343;28;20546;-52
2022/04/03 04:38:11;;;;;;;4.20;1.20;;;1.30;99.90;;;;;;5055319;28;20454;-51
2022/04/03 04:40:38;;;;;;;2.23;1.00;;;1.40;99.90;;;;;;5056427;28;20490;-51
2022/04/03 04:43:06;;;;;;;5.20;1.27;;;1.40;99.90;;;;;;5056303;28;20536;-54
2022/04/03 04:45:32;;;;;;;2.33;1.30;;;1.40;99.90;;;;;;5055918;28;20543;-53
2022/04/03 04:48:00;;;;;;;2.60;1.80;;;1.30;99.90;;;;;;5056181;28;20470;-53
2022/04/03 04:50:28;;;;;;;2.30;1.13;;;1.20;99.90;;;;;;5055996;28;20455;-56
2022/04/03 04:52:57;;;;;;;1.90;1.00;;;1.20;99.90;;;;;;5055678;28;20548;-56
2022/04/03 04:55:24;;;;;;;2.47;1.60;;;1.20;99.90;;;;;;5055517;28;20451;-54
2022/04/03 04:57:53;;;;;;;4.37;1.40;;;1.20;99.90;;;;;;5054659;28;20542;-54
2022/04/03 05:00:21;;;;;;;2.23;1.40;;;1.30;99.90;;;;;;5054439;28;20494;-55
2022/04/03 05:02:48;;;;;;;3.90;1.80;;;1.30;99.90;;;;;;5054103;28;20824;-55
2022/04/03 05:05:15;;;;;;;6.30;1.53;;;1.30;99.90;;;;;;5054492;28;20766;-54
2022/04/03 05:07:43;;;;;;;5.40;2.07;;;1.30;99.90;;;;;;5055112;28;20947;-55
2022/04/03 05:10:14;;;;;;;3.20;1.30;;;1.30;99.90;;;;;;5055694;28;20558;-55
2022/04/03 05:12:41;;;;;;;3.90;1.10;;;1.30;99.90;;;;;;5055446;28;20800;-53
2022/04/03 05:15:10;;;;;;;7.93;1.37;;;1.40;99.90;;;;;;5055552;28;20455;-53
2022/04/03 05:17:37;;;;;;;2.57;1.53;;;1.40;99.90;;;;;;5055795;28;20546;-55
2022/04/03 05:20:05;;;;;;;2.97;1.30;;;1.40;99.90;;;;;;5055942;28;20521;-55
2022/04/03 05:22:32;;;;;;;4.07;1.70;;;1.50;99.90;;;;;;5055642;28;20561;-51
2022/04/03 05:24:59;;;;;;;3.77;1.57;;;1.50;99.90;;;;;;5055446;28;20491;-54
2022/04/03 05:27:27;;;;;;;1.70;1.10;;;1.30;99.90;;;;;;5055617;28;20810;-52
2022/04/03 05:29:55;;;;;;;2.30;1.17;;;1.30;99.90;;;;;;5054566;28;20541;-52
2022/04/03 05:32:27;;;;;;;3.13;1.10;;;1.10;99.90;;;;;;5054222;28;20490;-54
2022/04/03 05:34:54;;;;;;;4.37;2.90;;;1.10;99.90;;;;;;5053025;28;20459;-49
2022/04/03 05:37:20;;;;;;;3.93;1.10;;;1.10;99.90;;;;;;5054149;28;20836;-54
2022/04/03 05:39:47;;;;;;;5.90;1.33;;;1.10;99.90;;;;;;5054586;28;20497;-55
2022/04/03 05:42:14;;;;;;;3.77;1.70;;;1.20;99.90;;;;;;5055418;28;20824;-52
2022/04/03 05:44:43;;;;;;;2.07;1.33;;;1.30;99.90;;;;;;5055269;28;20459;-55
2022/04/03 05:47:09;;;;;;;1.40;1.07;;;1.30;99.90;;;;;;5055094;28;20478;-55
2022/04/03 05:49:37;;;;;;;4.60;1.60;;;1.40;99.90;;;;;;5056105;28;20951;-55
2022/04/03 05:52:04;;;;;;;2.03;1.17;;;1.40;99.90;;;;;;5055452;28;20447;-55
2022/04/03 05:54:31;;;;;;;2.10;1.20;;;1.30;99.90;;;;;;5055361;28;20950;-53
2022/04/03 05:56:58;;;;;;;3.23;1.47;;;1.30;99.90;;;;;;5055830;28;20542;-54
2022/04/03 05:59:25;;;;;;;1.70;0.87;;;1.40;99.90;;;;;;5055093;28;20562;-54
2022/04/03 06:01:53;;;;;;;2.17;1.60;;;1.30;99.90;;;;;;5055685;28;20953;-55
2022/04/03 06:04:20;;;;;;;3.97;1.97;;;1.30;99.90;;;;;;5055622;28;20766;-54
2022/04/03 06:06:47;;;;;;;8.83;1.30;;;1.30;99.90;;;;;;5056847;28;20819;-55
2022/04/03 06:09:14;;;;;;;2.73;1.30;;;1.30;99.90;;;;;;5057029;28;20455;-55
2022/04/03 06:11:41;;;;;;;2.90;1.10;;;1.40;99.90;;;;;;5056020;28;20534;-53
2022/04/03 06:14:08;;;;;;;3.50;1.63;;;1.30;99.90;;;;;;5058319;28;20493;-55
2022/04/03 06:16:35;;;;;;;2.80;1.10;;;1.30;99.90;;;;;;5058506;28;20482;-49
2022/04/03 06:19:03;;;;;;;2.60;1.20;;;1.30;99.90;;;;;;5058407;28;20517;-53
2022/04/03 06:21:30;;;;;;;3.27;1.20;;;1.30;99.90;;;;;;5058538;28;20854;-55
2022/04/03 06:23:57;;;;;;;2.53;1.10;;;1.40;99.90;;;;;;5057838;28;20455;-53
2022/04/03 06:26:24;;;;;;;2.77;1.00;;;1.60;99.90;;;;;;5057719;28;20550;-54
2022/04/03 06:28:51;;;;;;;2.87;1.37;;;1.60;99.90;;;;;;5056414;28;20558;-54
2022/04/03 06:31:17;;;;;;;3.63;1.00;;;1.80;99.90;;;;;;5056753;28;20530;-54
2022/04/03 06:33:44;;;;;;;4.13;1.00;;;1.80;99.90;;;;;;5057588;28;20573;-54
2022/04/03 06:36:13;;;;;;;1.80;1.10;;;1.90;99.90;;;;;;5056826;28;20830;-53
2022/04/03 06:38:39;;;;;;;2.60;1.10;;;1.80;99.90;;;;;;5056863;28;20534;-55
2022/04/03 06:41:07;;;;;;;1.70;0.83;;;1.80;99.90;;;;;;5056553;28;20452;-56
2022/04/03 06:43:34;;;;;;;7.23;0.97;;;1.80;99.90;;;;;;5056113;28;20451;-57
2022/04/03 06:46:01;;;;;;;2.70;0.80;;;1.80;99.90;;;;;;5055528;28;20542;-57
2022/04/03 06:48:29;;;;;;;1.70;0.70;;;1.80;99.90;;;;;;5055590;28;20542;-56
2022/04/03 06:50:56;;;;;;;1.93;0.80;;;1.80;99.90;;;;;;5056486;28;20447;-56
2022/04/03 06:53:24;;;;;;;2.70;1.10;;;1.80;99.90;;;;;;5055380;28;20825;-57
2022/04/03 06:55:51;;;;;;;2.33;1.20;;;1.90;99.90;;;;;;5055884;28;20562;-58
2022/04/03 06:58:18;;;;;;;1.90;1.10;;;2.00;99.90;;;;;;5054535;28;20900;-57
2022/04/03 07:00:45;;;;;;;1.60;0.90;;;2.20;99.90;;;;;;5053513;28;20489;-55
2022/04/03 07:03:12;;;;;;;2.30;1.23;;;2.40;99.90;;;;;;5055266;28;20534;-57
2022/04/03 07:05:39;;;;;;;1.50;0.90;;;2.50;99.90;;;;;;5055207;28;20462;-56
2022/04/03 07:08:06;;;;;;;3.20;0.90;;;2.30;99.90;;;;;;5056906;28;20451;-56
2022/04/03 07:10:35;;;;;;;1.60;1.00;;;2.30;99.90;;;;;;5057738;28;20456;-56
2022/04/03 07:13:02;;;;;;;2.33;0.70;;;2.30;90.30;;;;;;5057388;28;20572;-57
2022/04/03 07:15:29;;;;;;;1.50;0.80;;;2.20;98.70;;;;;;5057058;28;20456;-54
2022/04/03 07:17:56;;;;;;;2.50;0.80;;;2.10;91.00;;;;;;5056655;28;20475;-56
2022/04/03 07:20:22;;;;;;;2.90;1.00;;;2.10;99.90;;;;;;5056572;28;20953;-56
2022/04/03 07:22:49;;;;;;;1.30;0.90;;;2.20;99.90;;;;;;5056222;28;20522;-57
2022/04/03 07:25:16;;;;;;;1.20;0.77;;;2.20;92.10;;;;;;5055800;28;20491;-57
2022/04/03 07:27:45;;;;;;;1.50;0.90;;;2.30;96.70;;;;;;5052322;28;20533;-57
2022/04/03 07:30:13;;;;;;;2.30;0.70;;;2.30;87.70;;;;;;5054465;28;20482;-58
2022/04/03 07:32:40;;;;;;;1.53;0.87;;;2.40;78.50;;;;;;5055395;28;20459;-59
2022/04/03 07:35:08;;;;;;;1.13;0.70;;;2.40;50.20;;;;;;5055833;28;20898;-57
2022/04/03 07:37:36;;;;;;;1.97;0.77;;;2.60;56.40;;;;;;5056216;28;20471;-58
2022/04/03 07:40:06;;;;;;;2.30;1.00;;;2.50;30.40;;;;;;5055442;28;20450;-58
2022/04/03 07:42:33;;;;;;;1.50;0.70;;;2.50;17.00;;;;;;5054077;28;20451;-58
2022/04/03 07:45:02;;;;;;;3.63;1.00;;;2.60;41.80;;;;;;5053823;28;20545;-58
2022/04/03 07:47:31;;;;;;;2.47;0.90;;;2.70;40.30;;;;;;5055920;28;20443;-58
2022/04/03 07:49:59;;;;;;;2.43;1.10;;;2.60;53.90;;;;;;5055868;28;20459;-58
2022/04/03 07:52:25;;;;;;;1.70;0.83;;;2.70;59.20;;;;;;5055373;28;20538;-58
2022/04/03 07:54:52;;;;;;;1.50;0.80;;;2.90;32.90;;;;;;5055981;28;20545;-58
2022/04/03 07:57:20;;;;;;;2.37;0.90;;;2.90;46.00;;;;;;5055526;28;20426;-59
2022/04/03 07:59:47;;;;;;;2.10;0.60;;;2.90;13.20;;;;;;5053487;28;20937;-59
2022/04/03 08:02:16;;;;;;;1.43;0.77;;;3.00;3.90;;;;;;5054258;28;20814;-59
2022/04/03 08:04:42;;;;;;;1.57;0.97;;;2.90;16.10;;;;;;5052931;28;20455;-58
2022/04/03 08:07:09;;;;;;;3.20;0.90;;;3.00;40.40;;;;;;5052788;28;20450;-58
2022/04/03 08:09:36;;;;;;;1.00;0.60;;;3.10;50.20;;;;;;5054771;28;20544;-58
2022/04/03 08:12:04;;;;;;;2.30;1.10;;;3.00;24.50;;;;;;5053808;28;20892;-58
2022/04/03 08:14:31;;;;;;;1.37;0.93;;;3.00;45.10;;;;;;5055303;28;20594;-58
2022/04/03 08:16:58;;;;;;;2.27;0.90;;;2.90;20.90;;;;;;5054429;28;20529;-58
2022/04/03 08:19:26;;;;;;;1.30;0.80;;;3.00;37.30;;;;;;5053911;28;20478;-59
2022/04/03 08:21:53;;;;;;;2.93;0.90;;;2.90;1.00;;;;;;5055403;28;20540;-58
2022/04/03 08:24:20;;;;;;;1.00;0.60;;;3.00;26.00;;;;;;5054565;28;20497;-59
2022/04/03 08:26:46;;;;;;;2.40;1.40;;;3.10;23.40;;;;;;5054754;28;20542;-53
2022/04/03 08:29:13;;;;;;;2.53;0.97;;;3.20;36.60;;;;;;5054528;28;20971;-55
2022/04/03 08:31:40;;;;;;;1.23;0.80;;;3.50;18.20;;;;;;5054083;28;20917;-56
2022/04/03 08:34:07;;;;;;;1.00;0.70;;;3.50;1.00;;;;;;5054943;28;20582;-55
2022/04/03 08:36:35;;;;;;;1.57;0.90;;;3.60;1.00;;;;;;5055511;28;20448;-58
2022/04/03 08:39:02;;;;;;;2.00;0.80;;;3.40;1.00;;;;;;5053176;28;20735;-54
2022/04/03 08:41:29;;;;;;;1.87;1.00;;;3.40;1.00;;;;;;5053836;28;20452;-58
2022/04/03 08:43:56;;;;;;;2.93;1.10;;;3.10;1.00;;;;;;5053750;28;20451;-58
2022/04/03 08:46:25;;;;;;;1.10;0.80;;;3.10;1.00;;;;;;5054258;28;20891;-58
2022/04/03 08:48:54;;;;;;;1.73;0.80;;;3.20;1.00;;;;;;5052401;28;20459;-56
2022/04/03 08:51:21;;;;;;;1.53;0.60;;;3.10;1.00;;;;;;5053801;28;20540;-59
2022/04/03 08:53:50;;;;;;;2.80;0.70;;;3.20;1.00;;;;;;5053595;28;20590;-56
2022/04/03 08:56:17;;;;;;;1.50;0.60;;;3.40;1.00;;;;;;5054411;28;20550;-57
2022/04/03 08:58:44;;;;;;;1.83;0.70;;;3.40;1.00;;;;;;5053599;28;20538;-58
2022/04/03 09:01:12;;;;;;;1.57;0.70;;;3.50;1.00;;;;;;5050719;28;20723;-58
2022/04/03 09:03:39;;;;;;;1.57;0.87;;;3.60;1.00;;;;;;5049267;28;20464;-57
2022/04/03 09:06:14;;;;;;;1.90;0.80;;;3.70;1.00;;;;;;5046090;28;20538;-58
2022/04/03 09:08:41;;;;;;;1.60;0.83;;;3.90;1.00;;;;;;5047957;28;20460;-58
2022/04/03 09:11:09;;;;;;;4.00;1.40;;;4.00;1.00;;;;;;5049905;28;20434;-59
2022/04/03 09:13:37;;;;;;;2.67;0.80;;;4.20;1.00;;;;;;5040060;28;20475;-58
2022/04/03 09:16:05;;;;;;;1.20;0.83;;;4.10;1.00;;;;;;5051828;28;20475;-59
2022/04/03 09:18:46;;;;;;;1.30;0.80;;;4.10;1.00;;;;;;5052290;28;20865;-59
2022/04/03 09:21:17;;;;;;;1.10;0.80;;;4.00;1.00;;;;;;5053238;28;20512;-58
2022/04/03 09:23:58;;;;;;;2.10;0.90;;;3.80;1.00;;;;;;5056073;28;20501;-59
2022/04/03 09:26:26;;;;;;;1.30;0.80;;;3.60;1.00;;;;;;5056524;28;21000;-59
2022/04/03 09:29:07;;;;;;;2.43;0.80;;;3.50;1.00;;;;;;5057150;28;20422;-58
2022/04/03 09:31:35;;;;;;;3.23;0.70;;;3.40;1.00;;;;;;5057397;28;20750;-59
2022/04/03 09:34:03;;;;;;;0.90;0.60;;;3.50;1.00;;;;;;5055896;28;20483;-59
2022/04/03 09:36:32;;;;;;;0.90;0.60;;;3.50;1.00;;;;;;5054776;28;20447;-59
2022/04/03 09:39:09;;;;;;;1.03;0.50;;;3.40;1.00;;;;;;5054000;28;20430;-58
2022/04/03 09:41:58;;;;;;;1.10;0.70;;;3.60;1.00;;;;;;5055761;28;20557;-58
2022/04/03 09:44:30;;;;;;;1.37;0.70;;;3.70;1.00;;;;;;5056703;28;20480;-59
2022/04/03 09:47:16;;;;;;;0.90;0.60;;;3.90;1.00;;;;;;5051794;28;20834;-58
2022/04/03 09:49:45;;;;;;;1.60;0.70;;;4.00;1.00;;;;;;5048756;28;20767;-58
2022/04/03 09:52:12;;;;;;;1.47;0.70;;;4.30;1.00;;;;;;5052670;28;20463;-59
2022/04/03 09:54:39;;;;;;;1.37;0.60;;;4.40;1.00;;;;;;5057455;28;20646;-59
2022/04/03 09:57:20;;;;;;;1.00;0.60;;;4.10;99.90;;;;;;5052536;28;20491;-59
2022/04/03 09:59:51;;;;;;;0.70;0.40;;;4.00;1.00;;;;;;5046122;28;20430;-59
2022/04/03 10:02:18;;;;;;;1.80;0.60;;;4.00;99.90;;;;;;5054770;28;20470;-59
2022/04/03 10:04:46;;;;;;;0.83;0.57;;;4.00;1.00;;;;;;5055114;28;20437;-59
2022/04/03 10:07:14;;;;;;;0.87;0.60;;;3.90;1.00;;;;;;5054415;28;20532;-59
2022/04/03 10:09:47;;;;;;;1.37;0.60;;;3.60;1.00;;;;;;5054465;28;20434;-58
2022/04/03 10:12:16;;;;;;;0.90;0.50;;;3.50;1.00;;;;;;5053276;28;20446;-58
2022/04/03 10:14:46;;;;;;;1.07;0.60;;;3.60;1.00;;;;;;5054692;28;20880;-60
2022/04/03 10:17:13;;;;;;;1.00;0.70;;;3.60;99.90;;;;;;5050903;28;20456;-58
2022/04/03 10:19:41;;;;;;;1.73;0.60;;;3.70;27.10;;;;;;5054770;28;20472;-59
2022/04/03 10:22:12;;;;;;;3.10;0.57;;;3.60;99.90;;;;;;5053234;28;20458;-59
2022/04/03 10:24:40;;;;;;;0.80;0.40;;;3.70;1.00;;;;;;5054734;28;20441;-58
2022/04/03 10:27:14;;;;;;;1.03;0.70;;;3.60;58.90;;;;;;5053130;28;20529;-59
2022/04/03 10:29:43;;;;;;;0.90;0.60;;;3.30;99.90;;;;;;5053630;28;20437;-58
2022/04/03 10:32:23;;;;;;;1.63;0.50;;;3.00;1.00;;;;;;5052923;28;20538;-59
2022/04/03 10:34:54;;;;;;;1.43;0.60;;;2.90;1.00;;;;;;5056182;28;20832;-59
2022/04/03 10:37:25;;;;;;;1.03;0.63;;;2.90;1.00;;;;;;5054340;28;20451;-59
2022/04/03 10:39:54;;;;;;;2.33;0.80;;;3.10;1.00;;;;;;5053845;28;20473;-57
2022/04/03 10:42:26;;;;;;;1.10;0.63;;;3.20;1.00;;;;;;5053721;28;20448;-57
2022/04/03 10:45:19;;;;;;;1.40;0.70;;;3.30;1.00;;;;;;5052531;28;20426;-57
2022/04/03 10:47:49;;;;;;;1.33;0.63;;;3.40;1.00;;;;;;5046215;28;20422;-57
2022/04/03 10:50:16;;;;;;;2.90;0.90;;;3.50;1.00;;;;;;5050773;28;20479;-60
2022/04/03 10:52:57;;;;;;;1.93;0.60;;;3.20;1.00;;;;;;5051735;28;20541;-58
2022/04/03 10:55:27;;;;;;;1.20;0.50;;;3.30;1.00;;;;;;5050273;28;20510;-58
2022/04/03 10:57:55;;;;;;;1.17;0.60;;;3.50;1.00;;;;;;5051232;28;20426;-58
2022/04/03 11:00:38;;;;;;;1.63;0.70;;;3.70;1.00;;;;;;5049780;28;20448;-58
2022/04/03 11:03:37;;;;;;;2.40;0.70;;;3.90;1.00;;;;;;5046260;28;20426;-58
2022/04/03 11:06:25;;;;;;;3.83;0.50;;;3.90;99.90;;;;;;5052702;28;20452;-58
2022/04/03 11:09:24;;;;;;;0.90;0.50;;;3.80;99.90;;;;;;5055158;28;20809;-58
2022/04/03 11:12:01;;;;;;;1.07;0.60;;;4.00;3.00;;;;;;5053694;28;20456;-59
2022/04/03 11:14:55;;;;;;;0.90;0.50;;;4.30;99.90;;;;;;5050804;28;20915;-58
2022/04/03 11:17:51;;;;;;;0.80;0.50;;;4.40;99.90;;;;;;5051464;28;20467;-58
2022/04/03 11:20:39;;;;;;;0.80;0.50;;;4.60;99.90;;;;;;5050868;28;20491;-58
2022/04/03 11:23:10;;;;;;;0.83;0.40;;;5.00;1.00;;;;;;5048139;28;20434;-58
2022/04/03 11:25:38;;;;;;;0.90;0.40;;;5.30;1.00;;;;;;5042193;28;20885;-59
2022/04/03 11:28:07;;;;;;;1.10;0.60;;;5.60;1.00;;;;;;5050817;28;20895;-59
2022/04/03 11:30:35;;;;;;;1.00;0.43;;;5.80;99.90;;;;;;5054389;28;20439;-59
2022/04/03 11:33:03;;;;;;;0.70;0.40;;;5.30;99.90;;;;;;5052409;28;20422;-59
2022/04/03 11:35:36;;;;;;;0.50;0.50;;;5.10;1.00;;;;;;5053892;28;20497;-59
2022/04/03 11:38:03;;;;;;;1.67;0.60;;;4.50;1.00;;;;;;5053403;28;20447;-59
2022/04/03 11:40:30;;;;;;;0.70;0.37;;;4.50;1.00;;;;;;5054069;28;20465;-58
2022/04/03 11:43:11;;;;;;;0.60;0.40;;;4.50;1.00;;;;;;5052821;28;20509;-58
2022/04/03 11:45:38;;;;;;;1.50;0.40;;;4.40;1.00;;;;;;5052168;28;20534;-59
2022/04/03 11:48:16;;;;;;;0.80;0.50;;;4.50;1.00;;;;;;5053080;28;20501;-59
2022/04/03 11:50:44;;;;;;;1.10;0.50;;;4.30;99.90;;;;;;5054522;28;20447;-57
2022/04/03 11:53:11;;;;;;;0.67;0.43;;;4.20;99.90;;;;;;5051759;28;20480;-58
2022/04/03 11:55:39;;;;;;;1.30;0.60;;;4.00;1.00;;;;;;5053952;28;20586;-57
2022/04/03 11:58:06;;;;;;;0.80;0.40;;;3.90;99.90;;;;;;5053337;28;20414;-58
2022/04/03 12:00:33;;;;;;;0.80;0.50;;;3.80;1.00;;;;;;5053564;28;20610;-58
2022/04/03 12:03:01;;;;;;;0.80;0.43;;;3.70;1.00;;;;;;5053898;28;20545;-57
2022/04/03 12:05:27;;;;;;;0.90;0.47;;;3.70;99.90;;;;;;5052078;28;20418;-58
2022/04/03 12:07:56;;;;;;;0.93;0.50;;;3.80;1.00;;;;;;5052635;28;20422;-57
2022/04/03 12:10:26;;;;;;;1.30;0.60;;;4.00;1.00;;;;;;5052373;28;20895;-58
2022/04/03 12:12:54;;;;;;;1.10;0.50;;;4.10;1.00;;;;;;5052384;28;20554;-58
2022/04/03 12:15:22;;;;;;;0.90;0.67;;;4.30;99.90;;;;;;5053730;28;20782;-58
2022/04/03 12:17:55;;;;;;;2.13;0.57;;;4.50;1.00;;;;;;5051828;28;20455;-58
2022/04/03 12:20:22;;;;;;;1.20;0.50;;;4.60;1.00;;;;;;5053188;28;20920;-58
2022/04/03 12:22:51;;;;;;;0.60;0.40;;;4.50;1.00;;;;;;5053052;28;20482;-59
2022/04/03 12:25:19;;;;;;;1.10;0.57;;;4.60;1.00;;;;;;5053668;28;20424;-58
2022/04/03 12:27:46;;;;;;;0.70;0.40;;;4.60;1.00;;;;;;5052760;28;20479;-57
2022/04/03 12:30:14;;;;;;;0.80;0.40;;;4.50;1.00;;;;;;5051541;28;20812;-58
2022/04/03 12:32:44;;;;;;;0.70;0.43;;;4.60;99.90;;;;;;5053493;28;20476;-58
2022/04/03 12:35:12;;;;;;;1.23;0.60;;;4.60;1.00;;;;;;5054642;28;20766;-56
2022/04/03 12:37:41;;;;;;;1.03;0.60;;;4.70;1.00;;;;;;5053974;28;20443;-57
2022/04/03 12:40:11;;;;;;;2.03;0.50;;;4.50;1.00;;;;;;5052789;28;20712;-57
2022/04/03 12:42:40;;;;;;;1.30;0.50;;;4.40;1.00;;;;;;5051617;28;20854;-58
2022/04/03 12:45:09;;;;;;;2.57;0.50;;;4.60;1.00;;;;;;5051917;28;20455;-59
2022/04/03 12:47:38;;;;;;;1.77;0.60;;;4.70;1.00;;;;;;5049922;28;20450;-58
2022/04/03 12:50:24;;;;;;;0.90;0.50;;;4.90;99.90;;;;;;5050209;28;20509;-58
2022/04/03 12:52:57;;;;;;;1.03;0.60;;;4.80;1.00;;;;;;5048943;28;20608;-58
2022/04/03 12:55:33;;;;;;;1.53;0.70;;;4.80;1.00;;;;;;5046035;28;20564;-58
2022/04/03 12:58:32;;;;;;;1.80;0.57;;;4.70;99.90;;;;;;5043678;28;20867;-58
2022/04/03 13:01:09;;;;;;;2.47;0.67;;;4.50;1.00;;;;;;5044568;28;20538;-59
2022/04/03 13:03:41;;;;;;;0.60;0.40;;;4.10;67.20;;;;;;5048799;28;20421;-57
2022/04/03 13:06:10;;;;;;;1.57;0.60;;;3.90;99.90;;;;;;5049893;28;20888;-56
2022/04/03 13:08:45;;;;;;;1.50;0.60;;;3.90;99.90;;;;;;5049262;28;20522;-60